Time;durP1;ratioP1;P1;durP2;ratioP2;P2;SDS_P1;SDS_P2;PMS_P1;PMS_P2;Temp;Humidity;BMP_temperature;BMP_pressure;BME280_temperature;BME280_humidity;BME280_pressure;Samples;Min_cycle;Max_cycle;Signal;HPM_P1;HPM_P2
2022/10/08 00:01:49;;;;;;;1.50;1.10;;;11.00;98.20;;;;;;5037857;28;20482;-77
2022/10/08 00:04:16;;;;;;;1.50;1.10;;;11.00;98.20;;;;;;5045408;28;20490;-78
2022/10/08 00:06:43;;;;;;;1.50;1.10;;;11.00;98.20;;;;;;5039159;28;20477;-77
2022/10/08 00:09:10;;;;;;;1.50;1.13;;;10.90;98.20;;;;;;5049171;28;20498;-77
2022/10/08 00:11:39;;;;;;;1.50;1.20;;;10.90;98.20;;;;;;5036161;28;20484;-77
2022/10/08 00:14:08;;;;;;;1.50;1.10;;;10.90;98.20;;;;;;5045577;28;20524;-78
2022/10/08 00:16:38;;;;;;;1.50;1.10;;;10.90;98.20;;;;;;5039390;28;20489;-77
2022/10/08 00:19:08;;;;;;;1.50;1.10;;;10.90;98.20;;;;;;5050051;28;20482;-78
2022/10/08 00:21:37;;;;;;;1.50;1.10;;;10.90;98.20;;;;;;5040565;28;20612;-77
2022/10/08 00:24:06;;;;;;;1.50;1.10;;;10.90;98.20;;;;;;5050419;28;20556;-76
2022/10/08 00:26:34;;;;;;;1.50;1.20;;;10.90;98.20;;;;;;5039508;28;20479;-76
2022/10/08 00:29:03;;;;;;;1.50;1.20;;;10.80;98.20;;;;;;5049831;28;20494;-77
2022/10/08 00:31:32;;;;;;;1.50;1.10;;;10.80;98.20;;;;;;5038599;28;20545;-76
2022/10/08 00:34:04;;;;;;;1.50;1.10;;;10.80;98.20;;;;;;5046862;28;20516;-77
2022/10/08 00:36:33;;;;;;;1.50;1.20;;;10.80;98.20;;;;;;5039520;28;20518;-77
2022/10/08 00:39:02;;;;;;;1.50;1.20;;;10.80;98.20;;;;;;5046469;28;21636;-78
2022/10/08 00:41:31;;;;;;;1.50;1.20;;;10.80;98.20;;;;;;5041739;28;20973;-78
2022/10/08 00:44:01;;;;;;;1.50;1.20;;;10.80;98.20;;;;;;5050505;28;20525;-77
2022/10/08 00:46:34;;;;;;;1.50;1.10;;;10.70;98.20;;;;;;5035523;28;20496;-78
2022/10/08 00:49:07;;;;;;;1.90;1.80;;;10.70;98.20;;;;;;5047775;28;20510;-78
2022/10/08 00:51:34;;;;;;;1.50;1.10;;;10.70;98.20;;;;;;5032708;28;20478;-76
2022/10/08 00:54:02;;;;;;;2.43;2.23;;;10.70;98.20;;;;;;5043938;28;20462;-78
2022/10/08 00:56:32;;;;;;;1.50;1.20;;;10.70;98.20;;;;;;5035139;28;20470;-78
2022/10/08 00:58:59;;;;;;;1.50;1.10;;;10.70;98.20;;;;;;5042015;28;20550;-78
2022/10/08 01:01:28;;;;;;;1.50;1.10;;;10.70;98.20;;;;;;5041022;28;20481;-78
2022/10/08 01:03:55;;;;;;;1.50;1.10;;;10.70;98.20;;;;;;5029467;28;20566;-76
2022/10/08 01:06:29;;;;;;;1.50;1.20;;;10.60;98.20;;;;;;5034564;28;20863;-76
2022/10/08 01:09:03;;;;;;;1.50;1.17;;;10.60;98.20;;;;;;5045254;28;20458;-77
2022/10/08 01:11:45;;;;;;;1.53;1.10;;;10.60;98.20;;;;;;5039613;28;20462;-78
2022/10/08 01:14:24;;;;;;;1.60;1.20;;;10.60;98.20;;;;;;5048160;28;20458;-76
2022/10/08 01:16:57;;;;;;;1.50;1.10;;;10.50;98.20;;;;;;5037470;28;20860;-77
2022/10/08 01:19:49;;;;;;;1.50;1.10;;;10.50;98.20;;;;;;5042572;28;20551;-76
2022/10/08 01:22:30;;;;;;;1.50;1.20;;;10.50;98.20;;;;;;5034699;28;20486;-78
2022/10/08 01:27:54;;;;;;;1.50;1.10;;;10.50;98.20;;;;;;5031072;28;20506;-76
2022/10/08 01:30:22;;;;;;;1.50;1.10;;;10.50;98.20;;;;;;5038560;28;20490;-77
2022/10/08 01:32:56;;;;;;;1.50;1.10;;;10.50;98.20;;;;;;5032574;28;21031;-76
2022/10/08 01:35:28;;;;;;;1.50;1.20;;;10.50;98.20;;;;;;5047132;28;20458;-76
2022/10/08 01:37:58;;;;;;;1.50;1.17;;;10.50;98.20;;;;;;5035602;28;20940;-76
2022/10/08 01:40:29;;;;;;;1.50;1.10;;;10.50;98.20;;;;;;5046696;28;20474;-76
2022/10/08 01:42:59;;;;;;;1.50;1.10;;;10.50;98.20;;;;;;5035274;28;21006;-77
2022/10/08 01:45:32;;;;;;;1.50;1.20;;;10.50;98.20;;;;;;5048470;28;20492;-80
2022/10/08 01:48:01;;;;;;;1.50;1.20;;;10.50;98.20;;;;;;5037514;28;20486;-79
2022/10/08 01:50:35;;;;;;;1.50;1.10;;;10.50;98.20;;;;;;5049380;28;20565;-79
2022/10/08 01:53:10;;;;;;;1.50;1.10;;;10.50;98.20;;;;;;5037293;28;20555;-79
2022/10/08 01:55:40;;;;;;;1.50;1.10;;;10.50;98.20;;;;;;5049128;28;20822;-78
2022/10/08 01:58:14;;;;;;;1.50;1.10;;;10.50;98.20;;;;;;5035713;28;20514;-78
2022/10/08 02:00:42;;;;;;;1.50;1.10;;;10.60;98.20;;;;;;5030045;28;20557;-78
2022/10/08 02:03:10;;;;;;;1.50;1.23;;;10.60;98.20;;;;;;5033819;28;20873;-78
2022/10/08 02:05:44;;;;;;;1.50;1.10;;;10.60;98.20;;;;;;5048906;28;20457;-78
2022/10/08 02:08:11;;;;;;;1.50;1.10;;;10.60;98.20;;;;;;5037726;28;20532;-80
2022/10/08 02:10:39;;;;;;;1.50;1.10;;;10.60;98.20;;;;;;5047240;28;21045;-80
2022/10/08 02:13:08;;;;;;;1.50;1.10;;;10.60;98.20;;;;;;5036619;28;20482;-79
2022/10/08 02:15:43;;;;;;;1.50;1.20;;;10.70;98.20;;;;;;5048683;28;20552;-77
2022/10/08 02:18:14;;;;;;;1.50;1.20;;;10.70;98.20;;;;;;5036564;28;20525;-79
2022/10/08 02:20:49;;;;;;;1.50;1.10;;;10.70;98.20;;;;;;5047984;28;20498;-81
2022/10/08 02:23:22;;;;;;;1.50;1.10;;;10.60;98.20;;;;;;5020723;28;20481;-78
2022/10/08 02:25:55;;;;;;;1.50;1.17;;;10.60;98.20;;;;;;5039870;28;21316;-80
2022/10/08 02:28:31;;;;;;;1.50;1.07;;;10.60;98.20;;;;;;5045848;28;20537;-77
2022/10/08 02:31:06;;;;;;;1.50;1.10;;;10.60;98.20;;;;;;5035238;28;20478;-80
2022/10/08 02:33:39;;;;;;;1.50;1.20;;;10.60;98.20;;;;;;5049455;28;20883;-79
2022/10/08 02:36:09;;;;;;;1.50;1.10;;;10.60;98.20;;;;;;5044281;28;20462;-79
2022/10/08 02:38:40;;;;;;;1.50;1.20;;;10.60;98.20;;;;;;5041364;28;20488;-80
2022/10/08 02:41:11;;;;;;;1.50;1.10;;;10.60;98.20;;;;;;5037730;28;20867;-78
2022/10/08 02:43:46;;;;;;;1.50;1.10;;;10.60;98.20;;;;;;5047612;28;20494;-78
2022/10/08 02:46:18;;;;;;;1.63;1.47;;;10.60;98.20;;;;;;5035978;28;20477;-80
2022/10/08 02:48:49;;;;;;;1.53;1.30;;;10.60;98.20;;;;;;5046893;28;20478;-80
2022/10/08 02:51:18;;;;;;;1.50;1.20;;;10.60;98.20;;;;;;5035112;28;20489;-78
2022/10/08 02:53:47;;;;;;;1.50;1.10;;;10.60;98.20;;;;;;5046434;28;20490;-79
2022/10/08 02:56:19;;;;;;;1.50;1.20;;;10.60;98.20;;;;;;5035092;28;20478;-79
2022/10/08 02:58:48;;;;;;;1.50;1.10;;;10.70;98.20;;;;;;5046287;28;20505;-79
2022/10/08 03:01:25;;;;;;;1.50;1.10;;;10.70;98.20;;;;;;5037209;28;20510;-80
2022/10/08 03:04:00;;;;;;;1.50;1.10;;;10.70;98.20;;;;;;5043253;28;20581;-78
2022/10/08 03:06:35;;;;;;;1.50;1.20;;;10.70;98.20;;;;;;5036892;28;20479;-78
2022/10/08 03:09:05;;;;;;;1.50;1.10;;;10.70;98.20;;;;;;5048723;28;20477;-80
2022/10/08 03:11:33;;;;;;;1.50;1.20;;;10.70;98.20;;;;;;5035195;28;20838;-81
2022/10/08 03:14:05;;;;;;;1.50;1.17;;;10.70;98.20;;;;;;5041386;28;20779;-81
2022/10/08 03:16:38;;;;;;;1.50;1.13;;;10.80;98.20;;;;;;5040368;28;20539;-81
2022/10/08 03:19:06;;;;;;;1.50;1.10;;;10.80;98.20;;;;;;5048402;28;20546;-81
2022/10/08 03:21:35;;;;;;;1.50;1.10;;;10.80;98.20;;;;;;5037211;28;20602;-79
2022/10/08 03:24:02;;;;;;;1.53;1.20;;;10.80;98.20;;;;;;5049991;28;20540;-79
2022/10/08 03:26:30;;;;;;;1.50;1.10;;;10.80;98.20;;;;;;5040539;28;20885;-81
2022/10/08 03:28:57;;;;;;;1.50;1.20;;;10.80;98.20;;;;;;5050854;28;20535;-78
2022/10/08 03:31:25;;;;;;;1.50;1.10;;;10.90;98.20;;;;;;5041045;28;20467;-79
2022/10/08 03:33:54;;;;;;;1.50;1.10;;;10.90;98.20;;;;;;5045809;28;20458;-79
2022/10/08 03:36:22;;;;;;;1.50;1.03;;;11.00;98.20;;;;;;5041200;28;20474;-81
2022/10/08 03:38:50;;;;;;;1.50;1.10;;;11.10;98.20;;;;;;5051361;28;20500;-80
2022/10/08 03:41:18;;;;;;;1.50;1.10;;;11.10;98.20;;;;;;5039049;28;20509;-77
2022/10/08 03:43:45;;;;;;;1.50;1.10;;;11.10;98.20;;;;;;5042167;28;20462;-77
2022/10/08 03:46:14;;;;;;;1.50;1.00;;;11.20;98.20;;;;;;5038684;28;20474;-81
2022/10/08 03:48:43;;;;;;;1.50;1.10;;;11.20;98.20;;;;;;5047440;28;20531;-78
2022/10/08 03:51:13;;;;;;;1.50;1.10;;;11.30;98.20;;;;;;5040072;28;20486;-79
2022/10/08 03:53:42;;;;;;;1.50;1.10;;;11.30;98.20;;;;;;5050970;28;20844;-80
2022/10/08 03:56:13;;;;;;;1.50;1.10;;;11.30;98.20;;;;;;5044007;28;20466;-80
2022/10/08 03:58:41;;;;;;;1.50;1.10;;;11.30;98.20;;;;;;5055964;28;20474;-82
2022/10/08 04:01:12;;;;;;;1.50;1.10;;;11.40;98.20;;;;;;5043174;28;21096;-81
2022/10/08 04:03:39;;;;;;;1.50;1.10;;;11.40;98.20;;;;;;5049879;28;20826;-80
2022/10/08 04:06:08;;;;;;;1.50;1.27;;;11.40;98.20;;;;;;5047638;28;20473;-79
2022/10/08 04:08:35;;;;;;;1.50;1.10;;;11.50;98.20;;;;;;5051509;28;20843;-81
2022/10/08 04:11:03;;;;;;;1.50;1.10;;;11.50;98.20;;;;;;5042901;28;20501;-80
2022/10/08 04:13:31;;;;;;;1.50;1.10;;;11.50;98.20;;;;;;5048595;28;20455;-78
2022/10/08 04:16:02;;;;;;;1.50;1.10;;;11.60;98.20;;;;;;5048997;28;20580;-78
2022/10/08 04:18:30;;;;;;;1.50;1.10;;;11.60;98.20;;;;;;5058034;28;20470;-78
2022/10/08 04:20:58;;;;;;;1.50;1.17;;;11.70;98.20;;;;;;5051065;28;20482;-77
2022/10/08 04:23:28;;;;;;;1.50;1.10;;;11.70;98.20;;;;;;5057724;28;20458;-80
2022/10/08 04:25:55;;;;;;;1.50;1.00;;;11.80;98.20;;;;;;5048958;28;20544;-78
2022/10/08 04:28:23;;;;;;;1.50;1.10;;;11.90;98.20;;;;;;5057747;28;20757;-80
2022/10/08 04:30:57;;;;;;;1.50;1.10;;;11.90;98.20;;;;;;5055407;28;20482;-79
2022/10/08 04:33:25;;;;;;;1.50;1.10;;;12.00;98.20;;;;;;5055175;28;20500;-80
2022/10/08 04:35:52;;;;;;;1.50;1.10;;;12.00;98.20;;;;;;5047586;28;20962;-79
2022/10/08 04:38:20;;;;;;;1.50;1.10;;;12.10;98.20;;;;;;5057569;28;20461;-81
2022/10/08 04:40:48;;;;;;;1.50;1.10;;;12.10;98.20;;;;;;5057712;28;20485;-82
2022/10/08 04:45:47;;;;;;;1.50;1.13;;;12.20;98.20;;;;;;5031691;22;20504;-79
2022/10/08 04:48:14;;;;;;;1.50;1.00;;;12.20;98.20;;;;;;5059691;28;20557;-82
2022/10/08 04:50:41;;;;;;;1.50;1.10;;;12.20;98.20;;;;;;5076389;28;20464;-82
2022/10/08 04:53:08;;;;;;;1.50;1.10;;;12.20;98.20;;;;;;5077478;28;20488;-81
2022/10/08 04:55:35;;;;;;;1.50;1.10;;;12.30;98.20;;;;;;5056962;28;20497;-82
2022/10/08 04:58:04;;;;;;;2.63;2.43;;;12.30;98.20;;;;;;5051044;28;20607;-82
2022/10/08 05:00:31;;;;;;;1.50;1.10;;;12.30;98.20;;;;;;5039183;28;20463;-82
2022/10/08 05:02:58;;;;;;;1.50;1.10;;;12.30;98.20;;;;;;5055374;28;20625;-84
2022/10/08 05:05:25;;;;;;;1.50;1.10;;;12.30;98.20;;;;;;5055563;28;20493;-82
2022/10/08 05:07:55;;;;;;;1.53;1.10;;;12.30;98.20;;;;;;5066459;28;20580;-82
2022/10/08 05:10:25;;;;;;;2.13;1.80;;;12.40;98.20;;;;;;5042493;28;20454;-82
2022/10/08 05:12:52;;;;;;;1.50;1.00;;;12.40;98.20;;;;;;5061234;28;20487;-82
2022/10/08 05:15:21;;;;;;;1.50;1.03;;;12.40;98.20;;;;;;5035967;28;20474;-82
2022/10/08 05:18:09;;;;;;;1.50;1.10;;;12.40;98.20;;;;;;5070928;28;20496;-82
2022/10/08 05:20:38;;;;;;;1.50;1.10;;;12.40;98.20;;;;;;5043435;28;20460;-83
2022/10/08 05:23:05;;;;;;;1.50;1.10;;;12.40;98.20;;;;;;5068507;28;20473;-82
2022/10/08 05:25:33;;;;;;;1.50;1.00;;;12.40;98.20;;;;;;5042433;28;20826;-82
2022/10/08 05:28:01;;;;;;;1.50;1.10;;;12.50;98.20;;;;;;5069491;28;20503;-82
2022/10/08 05:30:30;;;;;;;1.53;1.10;;;12.50;98.20;;;;;;5042052;28;20539;-82
2022/10/08 05:32:57;;;;;;;1.50;1.10;;;12.50;98.20;;;;;;5071989;28;20485;-82
2022/10/08 05:35:25;;;;;;;1.50;1.10;;;12.40;98.20;;;;;;5036832;28;20527;-82
2022/10/08 05:37:52;;;;;;;1.50;1.00;;;12.50;98.20;;;;;;5065102;28;20619;-82
2022/10/08 05:40:30;;;;;;;1.50;1.00;;;12.50;98.20;;;;;;5043765;28;20464;-81
2022/10/08 05:43:02;;;;;;;1.50;1.00;;;12.50;98.20;;;;;;5062381;28;20491;-81
2022/10/08 05:45:31;;;;;;;1.50;1.10;;;12.40;98.20;;;;;;5048478;28;20946;-82
2022/10/08 05:47:59;;;;;;;1.50;1.00;;;12.50;98.20;;;;;;5070099;28;20473;-83
2022/10/08 05:50:26;;;;;;;1.50;1.20;;;12.50;98.20;;;;;;5050502;28;20997;-82
2022/10/08 05:52:54;;;;;;;1.50;1.00;;;12.50;98.20;;;;;;5063557;28;20507;-82
2022/10/08 05:55:21;;;;;;;1.50;1.00;;;12.50;98.20;;;;;;5034389;28;20892;-82
2022/10/08 05:57:54;;;;;;;1.50;1.10;;;12.50;98.20;;;;;;5061776;28;20495;-81
2022/10/08 06:00:23;;;;;;;1.50;1.10;;;12.50;98.20;;;;;;5047646;28;20558;-83
2022/10/08 06:02:52;;;;;;;1.50;1.00;;;12.50;98.20;;;;;;5069344;28;21009;-83
2022/10/08 06:05:19;;;;;;;1.50;1.00;;;12.50;98.20;;;;;;5040844;28;20490;-82
2022/10/08 06:07:56;;;;;;;1.50;1.10;;;12.50;98.20;;;;;;5066458;28;20481;-81
2022/10/08 06:10:23;;;;;;;1.50;1.07;;;12.50;98.20;;;;;;5047402;28;20536;-82
2022/10/08 06:12:51;;;;;;;1.50;1.10;;;12.50;98.20;;;;;;5008460;28;20506;-82
2022/10/08 06:15:18;;;;;;;1.50;1.00;;;12.60;98.20;;;;;;5043576;28;20486;-82
2022/10/08 06:17:45;;;;;;;1.50;1.00;;;12.60;98.20;;;;;;5068156;28;20698;-82
2022/10/08 06:20:15;;;;;;;1.50;1.10;;;12.60;98.20;;;;;;5047688;28;20521;-82
2022/10/08 06:22:43;;;;;;;1.47;1.00;;;12.60;98.20;;;;;;5069462;28;20508;-81
2022/10/08 06:25:11;;;;;;;1.50;1.00;;;12.60;98.20;;;;;;5042484;28;20490;-81
2022/10/08 06:27:49;;;;;;;1.50;1.10;;;12.60;98.20;;;;;;5056407;28;20662;-81
2022/10/08 06:30:17;;;;;;;1.50;1.00;;;12.60;98.20;;;;;;5042250;28;20975;-82
2022/10/08 06:32:44;;;;;;;1.50;1.00;;;12.60;98.20;;;;;;5068624;28;20476;-82
2022/10/08 06:35:12;;;;;;;1.50;1.00;;;12.70;98.20;;;;;;5044400;28;20514;-82
2022/10/08 06:37:41;;;;;;;1.50;1.00;;;12.70;98.20;;;;;;5061815;28;20493;-82
2022/10/08 06:40:10;;;;;;;1.50;1.00;;;12.70;98.20;;;;;;5052059;28;20470;-82
2022/10/08 06:42:37;;;;;;;1.50;1.10;;;12.70;98.20;;;;;;5062365;28;20658;-81
2022/10/08 06:45:05;;;;;;;1.50;1.07;;;12.70;98.20;;;;;;5050984;28;20482;-83
2022/10/08 06:47:32;;;;;;;1.50;1.10;;;12.80;98.20;;;;;;5048195;28;20553;-82
2022/10/08 06:50:02;;;;;;;1.50;1.00;;;12.80;98.20;;;;;;5054898;28;20496;-83
2022/10/08 06:52:30;;;;;;;1.50;1.00;;;12.80;98.20;;;;;;5074948;28;20492;-82
2022/10/08 06:54:58;;;;;;;1.50;1.10;;;12.90;98.20;;;;;;5078216;28;20481;-84
2022/10/08 06:57:28;;;;;;;1.50;1.07;;;12.90;98.20;;;;;;5072517;28;20567;-82
2022/10/08 06:59:57;;;;;;;1.50;1.00;;;13.00;98.20;;;;;;5072634;28;20468;-81
2022/10/08 07:05:43;;;;;;;1.50;1.00;;;13.00;98.20;;;;;;5104409;22;20574;-82
2022/10/08 07:08:10;;;;;;;1.50;1.00;;;13.10;98.20;;;;;;5052708;28;20498;-81
2022/10/08 07:10:39;;;;;;;1.50;1.03;;;13.30;98.20;;;;;;5065119;28;20462;-81
2022/10/08 07:13:06;;;;;;;1.50;1.00;;;13.30;98.20;;;;;;5053625;28;20492;-80
2022/10/08 07:15:33;;;;;;;1.50;1.10;;;13.40;98.20;;;;;;5068261;28;20485;-82
2022/10/08 07:18:00;;;;;;;1.50;1.00;;;13.40;98.20;;;;;;5070112;28;20480;-80
2022/10/08 07:20:27;;;;;;;1.50;1.00;;;13.40;98.20;;;;;;5062058;28;20473;-81
2022/10/08 07:22:55;;;;;;;1.50;1.00;;;13.40;98.20;;;;;;5047138;28;20486;-80
2022/10/08 07:25:22;;;;;;;1.50;1.10;;;13.40;98.20;;;;;;5053678;28;20481;-81
2022/10/08 07:27:50;;;;;;;1.50;1.00;;;13.50;98.20;;;;;;5045286;28;20577;-80
2022/10/08 07:30:18;;;;;;;1.53;1.10;;;13.60;98.20;;;;;;5058791;28;20496;-81
2022/10/08 07:32:45;;;;;;;1.53;1.20;;;13.60;98.20;;;;;;5062302;28;20563;-80
2022/10/08 07:35:13;;;;;;;1.50;1.10;;;13.60;98.20;;;;;;5056163;28;20485;-80
2022/10/08 07:37:42;;;;;;;1.50;1.00;;;13.70;98.20;;;;;;5066556;28;20490;-80
2022/10/08 07:40:10;;;;;;;1.50;1.03;;;13.70;98.20;;;;;;5065137;28;20469;-80
2022/10/08 07:42:37;;;;;;;1.50;1.10;;;13.70;98.20;;;;;;5064571;28;20487;-81
2022/10/08 07:45:07;;;;;;;1.80;1.70;;;13.80;98.20;;;;;;5063368;28;20494;-80
2022/10/08 07:47:34;;;;;;;1.50;1.10;;;13.80;98.20;;;;;;5070574;28;20485;-80
2022/10/08 07:50:02;;;;;;;1.50;1.00;;;13.80;98.20;;;;;;5059545;28;20553;-81
2022/10/08 07:52:30;;;;;;;1.50;1.10;;;13.90;98.20;;;;;;5050590;28;20488;-80
2022/10/08 07:54:58;;;;;;;1.50;1.00;;;14.10;98.20;;;;;;5062181;28;20490;-79
2022/10/08 07:57:25;;;;;;;1.50;1.00;;;14.20;98.20;;;;;;5068842;28;20472;-80
2022/10/08 07:59:53;;;;;;;1.50;1.00;;;14.40;98.20;;;;;;5064007;28;20485;-80
2022/10/08 08:02:21;;;;;;;1.50;1.00;;;14.60;98.20;;;;;;5060324;28;20475;-80
2022/10/08 08:04:48;;;;;;;1.50;1.03;;;14.80;98.20;;;;;;5086171;28;20489;-78
2022/10/08 08:07:16;;;;;;;1.53;1.00;;;15.00;98.20;;;;;;5072360;28;20829;-80
2022/10/08 08:09:43;;;;;;;1.53;1.10;;;15.10;98.20;;;;;;5082720;28;20457;-80
2022/10/08 08:12:11;;;;;;;1.50;1.00;;;15.30;98.20;;;;;;5065201;28;20488;-80
2022/10/08 08:14:38;;;;;;;1.60;1.00;;;15.30;98.20;;;;;;5077180;28;20869;-79
2022/10/08 08:17:05;;;;;;;1.50;0.93;;;15.40;98.20;;;;;;5061778;28;21085;-79
2022/10/08 08:19:35;;;;;;;1.50;0.90;;;15.40;98.20;;;;;;5083669;28;20567;-78
2022/10/08 08:22:03;;;;;;;1.50;1.10;;;15.30;98.20;;;;;;5066893;28;21092;-79
2022/10/08 08:24:31;;;;;;;1.50;0.90;;;15.30;98.20;;;;;;5077819;28;20484;-78
2022/10/08 08:26:58;;;;;;;1.50;1.00;;;15.30;98.20;;;;;;5066580;28;20480;-77
2022/10/08 08:29:25;;;;;;;1.50;0.97;;;15.40;98.20;;;;;;5078837;28;20457;-77
2022/10/08 08:31:53;;;;;;;1.53;0.90;;;15.60;98.20;;;;;;5062993;28;20917;-77
2022/10/08 08:34:22;;;;;;;1.50;1.00;;;15.70;98.20;;;;;;5069348;28;20485;-79
2022/10/08 08:36:53;;;;;;;1.50;1.00;;;15.90;98.20;;;;;;5068338;28;20476;-78
2022/10/08 08:39:22;;;;;;;1.53;1.00;;;16.00;98.20;;;;;;5072416;28;20462;-77
2022/10/08 08:42:13;;;;;;;1.50;1.00;;;16.20;98.20;;;;;;5061634;28;20489;-78
2022/10/08 08:44:43;;;;;;;1.50;0.90;;;16.40;98.20;;;;;;5081135;28;20497;-78
2022/10/08 08:47:18;;;;;;;1.53;1.00;;;16.50;98.20;;;;;;5051954;28;20485;-79
2022/10/08 08:49:49;;;;;;;1.50;1.00;;;16.50;98.20;;;;;;5071731;28;20694;-78
2022/10/08 08:52:21;;;;;;;1.50;1.00;;;16.70;98.20;;;;;;5065043;28;20927;-79
2022/10/08 08:54:49;;;;;;;1.50;0.90;;;16.80;98.20;;;;;;5072243;28;20481;-78
2022/10/08 08:57:31;;;;;;;1.50;1.00;;;16.80;98.20;;;;;;5064084;28;20523;-77
2022/10/08 09:00:04;;;;;;;1.50;0.90;;;16.80;98.20;;;;;;5080116;28;20520;-79
2022/10/08 09:02:35;;;;;;;1.50;1.00;;;16.80;98.20;;;;;;5059923;28;20527;-79
2022/10/08 09:05:10;;;;;;;1.50;1.00;;;16.80;98.20;;;;;;5079474;28;20489;-80
2022/10/08 09:07:49;;;;;;;1.50;0.90;;;16.90;98.20;;;;;;5064873;28;20471;-79
2022/10/08 09:10:21;;;;;;;1.50;0.90;;;17.00;98.20;;;;;;5077564;28;20491;-79
2022/10/08 09:12:53;;;;;;;1.50;0.90;;;17.30;98.20;;;;;;5061919;28;20918;-77
2022/10/08 09:15:25;;;;;;;1.50;1.00;;;17.40;98.20;;;;;;5083803;28;20484;-79
2022/10/08 09:17:53;;;;;;;1.50;0.90;;;17.50;98.20;;;;;;5063772;28;20480;-77
2022/10/08 09:20:23;;;;;;;1.50;0.90;;;17.50;98.20;;;;;;5081768;28;20461;-79
2022/10/08 09:22:54;;;;;;;1.50;0.90;;;17.60;98.20;;;;;;5062651;28;21035;-79
2022/10/08 09:25:24;;;;;;;1.50;0.90;;;17.70;98.20;;;;;;5055986;28;20549;-78
2022/10/08 09:27:55;;;;;;;1.57;1.10;;;17.80;98.20;;;;;;5061492;28;20552;-78
2022/10/08 09:30:43;;;;;;;1.50;0.90;;;18.00;98.20;;;;;;5076702;28;20773;-79
2022/10/08 09:33:28;;;;;;;1.50;0.90;;;18.20;98.20;;;;;;5058560;28;20478;-78
2022/10/08 09:35:56;;;;;;;1.50;0.90;;;18.10;98.20;;;;;;5060946;28;20457;-78
2022/10/08 09:38:27;;;;;;;1.50;1.00;;;18.30;98.20;;;;;;5078686;28;20469;-77
2022/10/08 09:41:03;;;;;;;1.50;1.00;;;18.30;98.00;;;;;;5057372;28;20472;-78
2022/10/08 09:43:32;;;;;;;1.50;0.90;;;18.30;98.20;;;;;;5077581;28;20923;-77
2022/10/08 09:46:03;;;;;;;1.50;1.00;;;18.30;97.10;;;;;;5057589;28;20657;-78
2022/10/08 09:48:31;;;;;;;1.50;0.90;;;18.20;97.00;;;;;;5070098;28;20472;-77
2022/10/08 09:51:02;;;;;;;1.50;0.97;;;18.10;97.60;;;;;;5041878;28;20466;-77
2022/10/08 09:53:40;;;;;;;1.50;0.90;;;18.00;97.30;;;;;;5068038;28;20495;-78
2022/10/08 09:56:09;;;;;;;1.90;1.67;;;17.90;97.90;;;;;;5069483;28;20456;-80
2022/10/08 09:58:47;;;;;;;1.50;0.90;;;17.80;97.70;;;;;;5079234;28;20930;-78
2022/10/08 10:01:17;;;;;;;1.50;0.93;;;17.60;98.20;;;;;;5065880;28;20484;-78
2022/10/08 10:03:51;;;;;;;1.50;0.90;;;17.50;98.20;;;;;;5068374;28;20449;-77
2022/10/08 10:08:57;;;;;;;1.50;0.90;;;17.20;98.20;;;;;;5089092;28;20745;-79
2022/10/08 10:11:37;;;;;;;1.50;1.00;;;17.00;98.20;;;;;;5057872;28;20475;-82
2022/10/08 10:14:20;;;;;;;1.50;0.90;;;17.10;98.20;;;;;;5073990;28;20916;-79
2022/10/08 10:16:53;;;;;;;1.50;1.00;;;17.10;98.20;;;;;;5061202;28;20488;-79
2022/10/08 10:19:25;;;;;;;1.50;1.00;;;17.30;98.20;;;;;;5074980;28;20461;-80
2022/10/08 10:21:58;;;;;;;1.50;0.90;;;17.70;98.20;;;;;;5070134;28;20484;-81
2022/10/08 10:24:48;;;;;;;1.50;1.00;;;18.00;96.10;;;;;;5075215;28;20481;-80
2022/10/08 10:27:20;;;;;;;1.50;0.90;;;18.30;96.20;;;;;;5069602;28;20569;-79
2022/10/08 10:29:57;;;;;;;1.50;0.90;;;18.60;94.60;;;;;;5075309;28;20564;-79
2022/10/08 10:32:29;;;;;;;1.53;1.10;;;18.90;93.80;;;;;;5071413;28;21357;-79
2022/10/08 10:35:04;;;;;;;1.50;0.90;;;19.30;93.60;;;;;;5074472;28;20489;-79
2022/10/08 10:37:38;;;;;;;1.50;0.90;;;19.60;92.80;;;;;;5069459;28;20476;-79
2022/10/08 10:40:27;;;;;;;1.50;1.00;;;19.90;90.50;;;;;;5062237;28;20549;-78
2022/10/08 10:43:06;;;;;;;1.50;0.90;;;20.10;88.80;;;;;;5068359;28;20516;-79
2022/10/08 10:45:35;;;;;;;1.50;0.90;;;20.30;88.60;;;;;;5063211;28;20882;-78
2022/10/08 10:48:07;;;;;;;1.50;0.90;;;20.60;87.80;;;;;;5071356;28;20945;-80
2022/10/08 10:50:41;;;;;;;1.50;0.90;;;20.80;85.10;;;;;;5063564;28;21271;-77
2022/10/08 10:53:22;;;;;;;1.50;0.90;;;20.80;85.10;;;;;;5069089;28;20523;-78
2022/10/08 10:56:00;;;;;;;1.50;0.90;;;20.70;84.70;;;;;;5063514;28;20481;-77
2022/10/08 10:58:42;;;;;;;1.50;0.90;;;20.50;84.20;;;;;;5077550;28;20552;-77
2022/10/08 11:01:23;;;;;;;1.50;0.90;;;20.50;85.10;;;;;;5054002;28;21385;-76
2022/10/08 11:04:03;;;;;;;1.50;0.90;;;20.80;86.40;;;;;;5079333;28;20484;-80
2022/10/08 11:06:56;;;;;;;1.50;0.90;;;21.10;85.50;;;;;;5065366;28;20479;-77
2022/10/08 11:09:33;;;;;;;1.50;0.90;;;21.20;83.60;;;;;;5078998;28;20501;-80
2022/10/08 11:12:10;;;;;;;1.50;0.90;;;21.40;84.40;;;;;;5073783;28;20495;-79
2022/10/08 11:14:47;;;;;;;1.50;0.90;;;21.50;84.10;;;;;;5077885;28;20512;-78
2022/10/08 11:17:30;;;;;;;1.50;0.90;;;21.50;84.00;;;;;;5074373;28;20562;-77
2022/10/08 11:20:15;;;;;;;1.47;0.90;;;21.60;84.40;;;;;;5079807;28;20473;-77
2022/10/08 11:22:49;;;;;;;1.50;0.90;;;21.80;83.00;;;;;;5076556;28;20480;-81
2022/10/08 11:25:29;;;;;;;1.50;0.90;;;21.80;81.50;;;;;;5073504;28;20485;-78
2022/10/08 11:28:13;;;;;;;1.50;0.90;;;21.80;82.70;;;;;;5080874;28;20546;-78
2022/10/08 11:30:49;;;;;;;1.50;0.90;;;21.70;78.70;;;;;;5075239;28;21524;-78
2022/10/08 11:33:19;;;;;;;1.50;0.90;;;21.30;78.30;;;;;;5061807;28;20469;-80
2022/10/08 11:36:01;;;;;;;1.47;0.90;;;20.90;78.70;;;;;;5073605;28;20597;-79
2022/10/08 11:38:41;;;;;;;1.50;0.90;;;20.40;78.40;;;;;;5064624;28;20477;-76
2022/10/08 11:44:10;;;;;;;1.50;0.97;;;19.80;82.90;;;;;;5082535;28;20479;-79
2022/10/08 11:46:39;;;;;;;1.60;1.10;;;19.60;82.80;;;;;;5071885;28;20475;-78
2022/10/08 11:49:40;;;;;;;1.50;0.90;;;19.50;84.00;;;;;;5077307;28;20486;-77
2022/10/08 11:52:15;;;;;;;1.50;0.90;;;19.50;84.50;;;;;;5068496;28;20482;-76
2022/10/08 11:54:49;;;;;;;1.50;0.90;;;19.60;82.00;;;;;;5075547;28;20927;-80
2022/10/08 11:57:23;;;;;;;1.50;0.90;;;19.80;81.90;;;;;;5069103;28;20917;-76
2022/10/08 11:59:59;;;;;;;1.50;0.90;;;19.90;77.60;;;;;;5065568;28;20475;-77
2022/10/08 12:02:30;;;;;;;1.50;0.90;;;19.90;78.60;;;;;;5062648;28;20487;-77
2022/10/08 12:04:59;;;;;;;1.43;0.90;;;20.00;76.20;;;;;;5066183;28;20538;-76
2022/10/08 12:07:32;;;;;;;1.50;0.90;;;20.20;74.50;;;;;;5063050;28;20471;-78
2022/10/08 12:10:25;;;;;;;1.50;0.90;;;20.20;74.50;;;;;;5068930;28;20548;-79
2022/10/08 12:13:25;;;;;;;1.47;0.90;;;20.30;75.80;;;;;;5066227;28;20782;-78
2022/10/08 12:15:56;;;;;;;1.50;0.90;;;20.50;76.80;;;;;;5054356;28;20461;-77
2022/10/08 12:18:43;;;;;;;1.50;1.00;;;20.70;76.60;;;;;;5079037;28;20537;-78
2022/10/08 12:21:52;;;;;;;1.50;0.90;;;20.90;74.80;;;;;;5060521;28;20467;-79
2022/10/08 12:24:52;;;;;;;1.47;0.90;;;20.90;74.80;;;;;;5078465;28;20848;-77
2022/10/08 12:27:34;;;;;;;1.50;0.90;;;21.00;76.10;;;;;;5070409;28;20472;-77
2022/10/08 12:30:04;;;;;;;1.50;0.90;;;21.10;76.70;;;;;;5074375;28;20470;-79
2022/10/08 12:32:52;;;;;;;1.50;0.90;;;21.30;75.70;;;;;;5070282;28;20573;-77
2022/10/08 12:35:25;;;;;;;1.50;0.90;;;21.40;75.20;;;;;;5068646;28;20611;-77
2022/10/08 12:38:12;;;;;;;1.50;0.90;;;21.30;77.40;;;;;;5076657;28;20476;-77
2022/10/08 12:40:42;;;;;;;1.50;0.90;;;21.20;74.80;;;;;;5070226;28;20791;-78
2022/10/08 12:43:33;;;;;;;1.43;0.90;;;21.00;76.00;;;;;;5072683;28;20482;-76
2022/10/08 12:46:10;;;;;;;1.50;0.90;;;20.50;75.60;;;;;;5056784;28;20465;-77
2022/10/08 12:48:47;;;;;;;1.43;0.90;;;20.00;76.10;;;;;;5066821;28;21009;-77
2022/10/08 12:51:23;;;;;;;1.47;0.90;;;19.60;78.20;;;;;;5063920;28;21030;-77
2022/10/08 12:53:51;;;;;;;1.50;0.90;;;19.60;78.50;;;;;;5081193;28;20492;-80
2022/10/08 12:56:25;;;;;;;1.43;0.90;;;19.70;79.00;;;;;;5066088;28;20532;-79
2022/10/08 12:58:55;;;;;;;2.87;1.60;;;20.00;78.00;;;;;;5082547;28;20779;-77
2022/10/08 13:01:24;;;;;;;1.50;0.90;;;20.10;76.00;;;;;;5063781;28;20981;-78
2022/10/08 13:04:20;;;;;;;1.50;0.90;;;20.30;76.00;;;;;;5078250;28;20485;-78
2022/10/08 13:06:49;;;;;;;1.50;0.90;;;20.40;75.60;;;;;;5063404;28;20570;-77
2022/10/08 13:09:28;;;;;;;1.47;0.90;;;20.60;74.90;;;;;;5074597;28;20465;-77
2022/10/08 13:11:57;;;;;;;1.47;0.90;;;20.70;75.30;;;;;;5065177;28;20490;-77
2022/10/08 13:14:26;;;;;;;1.50;0.90;;;20.80;73.30;;;;;;5072415;28;20530;-76
2022/10/08 13:16:54;;;;;;;1.47;0.90;;;20.80;71.40;;;;;;5062555;28;20469;-77
2022/10/08 13:19:30;;;;;;;1.50;0.90;;;20.80;73.20;;;;;;5074710;28;20489;-78
2022/10/08 13:21:59;;;;;;;1.50;0.90;;;20.70;72.30;;;;;;5069063;28;20547;-77
2022/10/08 13:24:37;;;;;;;1.43;0.90;;;20.70;72.70;;;;;;5075793;28;21045;-79
2022/10/08 13:27:05;;;;;;;1.47;0.90;;;20.80;73.70;;;;;;5069072;28;20514;-78